AFR17SW SOCA-SBFZ
Flight info
| Callsign | AFR17SW |
|---|---|
| Flight time | 2h 21m |
| Altitude | 35000 |
| Route | URUPU1A URUPU DCT ARNAM UM791 ARMIR UZ60 DOTKU |
| Aircraft | A320/M-SDE3FGHIRWY/LB1 |
Departure
| Time | 2026-05-07 18:42 |
|---|---|
| Airport | Cayenne – Félix Eboué Airport (SOCA) |
Arrival
| Time | 2026-05-07 21:04 |
|---|---|
| Airport | Pinto Martins International Airport (SBFZ) |
| Time | Latitude | Longitude | Altitude | Speed | Heading |
|---|---|---|---|---|---|
| 2026-05-07 18:05 | 4.82144 | -52.36360 | 28 ft | 0 kts | 343° |
| 2026-05-07 18:33 | 4.82137 | -52.36358 | 29 ft | 4 kts | 342° |
| 2026-05-07 18:33 | 4.82112 | -52.36349 | 29 ft | 4 kts | 339° |
| 2026-05-07 18:34 | 4.82086 | -52.36341 | 29 ft | 4 kts | 356° |
| 2026-05-07 18:34 | 4.82072 | -52.36341 | 29 ft | 4 kts | 42° |
| 2026-05-07 18:34 | 4.82058 | -52.36365 | 29 ft | 1 kts | 65° |
| 2026-05-07 18:34 | 4.82058 | -52.36366 | 29 ft | 0 kts | 65° |
| 2026-05-07 18:36 | 4.82063 | -52.36354 | 29 ft | 4 kts | 64° |
| 2026-05-07 18:36 | 4.82080 | -52.36318 | 29 ft | 8 kts | 64° |
| 2026-05-07 18:37 | 4.82091 | -52.36269 | 29 ft | 8 kts | 116° |
| 2026-05-07 18:37 | 4.82052 | -52.36247 | 29 ft | 0 kts | 159° |
| 2026-05-07 18:37 | 4.82051 | -52.36247 | 29 ft | 0 kts | 159° |
| 2026-05-07 18:37 | 4.82030 | -52.36238 | 29 ft | 6 kts | 159° |
| 2026-05-07 18:38 | 4.81967 | -52.36216 | 28 ft | 10 kts | 178° |
| 2026-05-07 18:38 | 4.81927 | -52.36262 | 28 ft | 9 kts | 245° |
| 2026-05-07 18:38 | 4.81881 | -52.36362 | 27 ft | 25 kts | 245° |
| 2026-05-07 18:38 | 4.81782 | -52.36573 | 28 ft | 39 kts | 245° |
| 2026-05-07 18:39 | 4.81671 | -52.36812 | 28 ft | 37 kts | 245° |
| 2026-05-07 18:39 | 4.81564 | -52.37042 | 27 ft | 35 kts | 246° |
| 2026-05-07 18:39 | 4.81491 | -52.37200 | 27 ft | 19 kts | 246° |
| 2026-05-07 18:39 | 4.81439 | -52.37317 | 29 ft | 17 kts | 255° |
| 2026-05-07 18:40 | 4.81430 | -52.37406 | 25 ft | 10 kts | 213° |
| 2026-05-07 18:40 | 4.81408 | -52.37375 | 25 ft | 5 kts | 68° |
| 2026-05-07 18:40 | 4.81412 | -52.37366 | 25 ft | 0 kts | 64° |
| 2026-05-07 18:41 | 4.81415 | -52.37362 | 25 ft | 6 kts | 64° |
| 2026-05-07 18:41 | 4.81523 | -52.37131 | 27 ft | 71 kts | 65° |
| 2026-05-07 18:42 | 4.81820 | -52.36494 | 28 ft | 128 kts | 65° |
| 2026-05-07 18:42 | 4.82265 | -52.35540 | 50 ft | 170 kts | 64° |
| 2026-05-07 18:42 | 4.82763 | -52.34487 | 725 ft | 163 kts | 66° |
| 2026-05-07 18:42 | 4.83091 | -52.33394 | 1368 ft | 164 kts | 74° |
| 2026-05-07 18:43 | 4.83371 | -52.32282 | 1895 ft | 168 kts | 73° |
| 2026-05-07 18:43 | 4.83680 | -52.31069 | 2128 ft | 190 kts | 73° |
| 2026-05-07 18:43 | 4.84026 | -52.29721 | 2385 ft | 211 kts | 73° |
| 2026-05-07 18:43 | 4.84407 | -52.28242 | 2745 ft | 230 kts | 73° |
| 2026-05-07 18:44 | 4.84813 | -52.26667 | 3403 ft | 235 kts | 74° |
| 2026-05-07 18:44 | 4.85225 | -52.25063 | 4023 ft | 244 kts | 73° |
| 2026-05-07 18:44 | 4.85666 | -52.23353 | 4517 ft | 259 kts | 74° |
| 2026-05-07 18:44 | 4.86128 | -52.21582 | 5209 ft | 265 kts | 72° |
| 2026-05-07 18:45 | 4.86921 | -52.19916 | 5951 ft | 266 kts | 54° |
| 2026-05-07 18:45 | 4.88108 | -52.18472 | 6669 ft | 270 kts | 47° |
| 2026-05-07 18:45 | 4.89419 | -52.17139 | 7379 ft | 273 kts | 45° |
| 2026-05-07 18:45 | 4.90787 | -52.15798 | 8204 ft | 276 kts | 45° |
| 2026-05-07 18:46 | 4.92158 | -52.14429 | 8889 ft | 280 kts | 46° |
| 2026-05-07 18:46 | 4.93531 | -52.13013 | 9564 ft | 284 kts | 47° |
| 2026-05-07 18:46 | 4.94902 | -52.11559 | 10164 ft | 291 kts | 47° |
| 2026-05-07 18:46 | 4.96333 | -52.10012 | 10319 ft | 315 kts | 48° |
| 2026-05-07 18:47 | 4.97865 | -52.08332 | 10507 ft | 337 kts | 48° |
| 2026-05-07 18:47 | 4.99460 | -52.06579 | 10841 ft | 349 kts | 48° |
| 2026-05-07 18:47 | 5.01110 | -52.04762 | 11378 ft | 354 kts | 48° |
| 2026-05-07 18:47 | 5.02781 | -52.02922 | 11929 ft | 358 kts | 48° |
| 2026-05-07 18:48 | 5.04457 | -52.01077 | 12450 ft | 363 kts | 48° |
| 2026-05-07 18:48 | 5.06169 | -51.99192 | 12989 ft | 368 kts | 48° |
| 2026-05-07 18:48 | 5.07907 | -51.97277 | 13510 ft | 372 kts | 48° |
| 2026-05-07 18:48 | 5.09662 | -51.95343 | 13996 ft | 376 kts | 47° |
| 2026-05-07 18:49 | 5.11435 | -51.93393 | 14485 ft | 379 kts | 48° |
| 2026-05-07 18:49 | 5.13228 | -51.91424 | 14956 ft | 383 kts | 48° |
| 2026-05-07 18:49 | 5.15015 | -51.89461 | 15423 ft | 386 kts | 48° |
| 2026-05-07 18:49 | 5.16830 | -51.87454 | 15859 ft | 390 kts | 49° |
| 2026-05-07 18:50 | 5.18384 | -51.85209 | 16298 ft | 394 kts | 63° |
| 2026-05-07 18:50 | 5.19415 | -51.82655 | 16722 ft | 397 kts | 75° |
| 2026-05-07 18:50 | 5.19858 | -51.79910 | 17158 ft | 399 kts | 88° |
| 2026-05-07 18:50 | 5.19680 | -51.77124 | 17587 ft | 402 kts | 102° |
| 2026-05-07 18:51 | 5.19097 | -51.74401 | 18005 ft | 405 kts | 103° |
| 2026-05-07 18:51 | 5.18493 | -51.71625 | 18420 ft | 408 kts | 103° |
| 2026-05-07 18:51 | 5.17890 | -51.68832 | 18827 ft | 410 kts | 103° |
| 2026-05-07 18:51 | 5.17282 | -51.66017 | 19225 ft | 413 kts | 103° |
| 2026-05-07 18:52 | 5.16673 | -51.63194 | 19639 ft | 415 kts | 103° |
| 2026-05-07 18:52 | 5.16063 | -51.60353 | 20061 ft | 417 kts | 103° |
| 2026-05-07 18:52 | 5.15452 | -51.57502 | 20461 ft | 419 kts | 103° |
| 2026-05-07 18:52 | 5.14844 | -51.54670 | 20852 ft | 421 kts | 103° |
| 2026-05-07 18:53 | 5.14225 | -51.51790 | 21243 ft | 423 kts | 103° |
| 2026-05-07 18:53 | 5.13601 | -51.48893 | 21622 ft | 425 kts | 102° |
| 2026-05-07 18:53 | 5.12975 | -51.45982 | 21991 ft | 427 kts | 102° |
| 2026-05-07 18:53 | 5.12346 | -51.43059 | 22353 ft | 429 kts | 102° |
| 2026-05-07 18:54 | 5.11714 | -51.40125 | 22706 ft | 431 kts | 103° |
| 2026-05-07 18:54 | 5.11083 | -51.37208 | 23048 ft | 433 kts | 103° |
| 2026-05-07 18:54 | 5.10443 | -51.34239 | 23384 ft | 435 kts | 102° |
| 2026-05-07 18:54 | 5.09801 | -51.31259 | 23662 ft | 438 kts | 102° |
| 2026-05-07 18:55 | 5.09153 | -51.28263 | 23921 ft | 440 kts | 102° |
| 2026-05-07 18:55 | 5.08500 | -51.25253 | 24182 ft | 442 kts | 102° |
| 2026-05-07 18:55 | 5.07844 | -51.22229 | 24443 ft | 444 kts | 102° |
| 2026-05-07 18:55 | 5.07196 | -51.19232 | 24697 ft | 446 kts | 103° |
| 2026-05-07 18:56 | 5.06538 | -51.16183 | 24938 ft | 448 kts | 102° |
| 2026-05-07 18:56 | 5.05877 | -51.13116 | 25188 ft | 449 kts | 103° |
| 2026-05-07 18:56 | 5.05213 | -51.10041 | 25425 ft | 451 kts | 103° |
| 2026-05-07 18:56 | 5.04556 | -51.06990 | 25658 ft | 453 kts | 103° |
| 2026-05-07 18:57 | 5.03888 | -51.03888 | 25896 ft | 454 kts | 103° |
| 2026-05-07 18:57 | 5.03216 | -51.00782 | 26128 ft | 456 kts | 104° |
| 2026-05-07 18:57 | 5.02539 | -50.97661 | 26360 ft | 458 kts | 104° |
| 2026-05-07 18:57 | 5.01869 | -50.94577 | 26588 ft | 459 kts | 103° |
| 2026-05-07 18:58 | 5.01189 | -50.91440 | 26811 ft | 461 kts | 103° |
| 2026-05-07 18:58 | 5.00507 | -50.88288 | 27026 ft | 462 kts | 104° |
| 2026-05-07 18:58 | 4.99822 | -50.85122 | 27244 ft | 464 kts | 104° |
| 2026-05-07 18:58 | 4.99134 | -50.81951 | 27445 ft | 465 kts | 104° |
| 2026-05-07 18:59 | 4.98450 | -50.78804 | 27641 ft | 467 kts | 103° |
| 2026-05-07 18:59 | 4.97757 | -50.75615 | 27844 ft | 468 kts | 103° |
| 2026-05-07 18:59 | 4.97062 | -50.72418 | 28042 ft | 470 kts | 104° |
| 2026-05-07 18:59 | 4.96363 | -50.69198 | 28226 ft | 472 kts | 104° |
| 2026-05-07 19:00 | 4.95663 | -50.65980 | 28414 ft | 473 kts | 104° |
| 2026-05-07 19:00 | 4.94961 | -50.62750 | 28607 ft | 474 kts | 103° |
| 2026-05-07 19:00 | 4.94259 | -50.59511 | 28787 ft | 475 kts | 104° |
| 2026-05-07 19:00 | 4.93557 | -50.56269 | 28966 ft | 476 kts | 104° |
| 2026-05-07 19:01 | 4.92863 | -50.53062 | 29129 ft | 477 kts | 104° |
| 2026-05-07 19:01 | 4.92157 | -50.49800 | 29288 ft | 478 kts | 103° |
| 2026-05-07 19:01 | 4.91448 | -50.46529 | 29444 ft | 479 kts | 103° |
| 2026-05-07 19:01 | 4.90738 | -50.43259 | 29620 ft | 479 kts | 104° |
| 2026-05-07 19:02 | 4.90032 | -50.40028 | 29843 ft | 479 kts | 104° |
| 2026-05-07 19:02 | 4.89318 | -50.36761 | 30044 ft | 478 kts | 104° |
| 2026-05-07 19:02 | 4.88606 | -50.33497 | 30231 ft | 478 kts | 104° |
| 2026-05-07 19:02 | 4.87899 | -50.30246 | 30411 ft | 477 kts | 104° |
| 2026-05-07 19:03 | 4.87193 | -50.26990 | 30598 ft | 477 kts | 104° |
| 2026-05-07 19:03 | 4.86487 | -50.23729 | 30784 ft | 477 kts | 104° |
| 2026-05-07 19:03 | 4.85792 | -50.20523 | 30964 ft | 476 kts | 104° |
| 2026-05-07 19:03 | 4.85086 | -50.17274 | 31156 ft | 476 kts | 104° |
| 2026-05-07 19:04 | 4.84377 | -50.14030 | 31332 ft | 476 kts | 104° |
| 2026-05-07 19:04 | 4.83669 | -50.10789 | 31531 ft | 475 kts | 104° |
| 2026-05-07 19:04 | 4.82963 | -50.07548 | 31724 ft | 475 kts | 104° |
| 2026-05-07 19:04 | 4.82267 | -50.04350 | 31917 ft | 475 kts | 104° |
| 2026-05-07 19:05 | 4.81560 | -50.01108 | 32118 ft | 474 kts | 104° |
| 2026-05-07 19:05 | 4.80853 | -49.97874 | 32307 ft | 474 kts | 104° |
| 2026-05-07 19:05 | 4.80148 | -49.94639 | 32531 ft | 473 kts | 104° |
| 2026-05-07 19:05 | 4.79444 | -49.91417 | 32733 ft | 472 kts | 104° |
| 2026-05-07 19:06 | 4.78745 | -49.88201 | 32936 ft | 472 kts | 104° |
| 2026-05-07 19:06 | 4.77354 | -49.81807 | 33336 ft | 471 kts | 104° |
| 2026-05-07 19:06 | 4.76650 | -49.78590 | 33542 ft | 471 kts | 104° |
| 2026-05-07 19:07 | 4.75945 | -49.75382 | 33746 ft | 470 kts | 104° |
| 2026-05-07 19:07 | 4.75242 | -49.72179 | 33954 ft | 469 kts | 104° |
| 2026-05-07 19:07 | 4.74550 | -49.69014 | 34140 ft | 469 kts | 105° |
| 2026-05-07 19:07 | 4.73664 | -49.65877 | 34320 ft | 465 kts | 113° |
| 2026-05-07 19:08 | 4.72317 | -49.62937 | 34483 ft | 462 kts | 122° |
| 2026-05-07 19:08 | 4.70540 | -49.60271 | 34641 ft | 458 kts | 131° |
| 2026-05-07 19:08 | 4.68439 | -49.57866 | 34804 ft | 456 kts | 134° |
| 2026-05-07 19:08 | 4.66346 | -49.55522 | 34898 ft | 457 kts | 134° |
| 2026-05-07 19:09 | 4.62114 | -49.50745 | 34917 ft | 458 kts | 133° |
| 2026-05-07 19:09 | 4.57922 | -49.45976 | 34917 ft | 458 kts | 133° |
| 2026-05-07 19:10 | 4.53692 | -49.41180 | 34916 ft | 458 kts | 133° |
| 2026-05-07 19:10 | 4.49463 | -49.36402 | 34915 ft | 458 kts | 133° |
| 2026-05-07 19:11 | 4.45223 | -49.31614 | 34920 ft | 458 kts | 133° |
| 2026-05-07 19:11 | 4.41022 | -49.26859 | 34924 ft | 458 kts | 133° |
| 2026-05-07 19:12 | 4.36788 | -49.22069 | 34924 ft | 458 kts | 133° |
| 2026-05-07 19:12 | 4.32577 | -49.17313 | 34923 ft | 458 kts | 133° |
| 2026-05-07 19:13 | 4.28338 | -49.12526 | 34924 ft | 458 kts | 133° |
| 2026-05-07 19:13 | 4.24125 | -49.07768 | 34929 ft | 458 kts | 133° |
| 2026-05-07 19:14 | 4.19891 | -49.02981 | 34930 ft | 458 kts | 133° |
| 2026-05-07 19:14 | 4.15666 | -48.98191 | 34931 ft | 458 kts | 133° |
| 2026-05-07 19:15 | 4.11433 | -48.93406 | 34929 ft | 458 kts | 133° |
| 2026-05-07 19:15 | 4.07225 | -48.88657 | 34930 ft | 458 kts | 133° |
| 2026-05-07 19:16 | 4.02980 | -48.83871 | 34930 ft | 458 kts | 133° |
| 2026-05-07 19:16 | 3.98744 | -48.79081 | 34932 ft | 459 kts | 133° |
| 2026-05-07 19:17 | 3.94529 | -48.74320 | 34932 ft | 459 kts | 133° |
| 2026-05-07 19:17 | 3.90284 | -48.69528 | 34933 ft | 459 kts | 133° |
| 2026-05-07 19:18 | 3.86072 | -48.64772 | 34934 ft | 459 kts | 133° |
| 2026-05-07 19:18 | 3.81822 | -48.59982 | 34933 ft | 459 kts | 133° |
| 2026-05-07 19:19 | 3.77606 | -48.55233 | 34934 ft | 459 kts | 133° |
| 2026-05-07 19:19 | 3.73367 | -48.50451 | 34934 ft | 459 kts | 133° |
| 2026-05-07 19:20 | 3.69129 | -48.45661 | 34932 ft | 459 kts | 133° |
| 2026-05-07 19:20 | 3.64880 | -48.40881 | 34937 ft | 458 kts | 133° |
| 2026-05-07 19:21 | 3.60668 | -48.36130 | 34938 ft | 458 kts | 133° |
| 2026-05-07 19:21 | 3.56427 | -48.31346 | 34938 ft | 458 kts | 133° |
| 2026-05-07 19:22 | 3.52215 | -48.26603 | 34938 ft | 458 kts | 133° |
| 2026-05-07 19:22 | 3.47971 | -48.21827 | 34938 ft | 458 kts | 133° |
| 2026-05-07 19:23 | 3.43764 | -48.17085 | 34940 ft | 458 kts | 133° |
| 2026-05-07 19:23 | 3.39539 | -48.12307 | 34940 ft | 458 kts | 132° |
| 2026-05-07 19:24 | 3.35298 | -48.07530 | 34933 ft | 458 kts | 133° |
| 2026-05-07 19:24 | 3.31763 | -48.03555 | 34933 ft | 459 kts | 133° |
| 2026-05-07 19:25 | 3.27536 | -47.98795 | 34936 ft | 459 kts | 133° |
| 2026-05-07 19:25 | 3.22603 | -47.93239 | 34937 ft | 459 kts | 133° |
| 2026-05-07 19:26 | 3.19074 | -47.89267 | 34941 ft | 459 kts | 133° |
| 2026-05-07 19:26 | 3.14819 | -47.84485 | 34941 ft | 459 kts | 133° |
| 2026-05-07 19:27 | 3.10564 | -47.79697 | 34940 ft | 459 kts | 133° |
| 2026-05-07 19:27 | 3.06338 | -47.74941 | 34941 ft | 459 kts | 133° |
| 2026-05-07 19:28 | 3.02090 | -47.70165 | 34941 ft | 459 kts | 133° |
| 2026-05-07 19:28 | 2.97863 | -47.65410 | 34941 ft | 459 kts | 133° |
| 2026-05-07 19:29 | 2.93614 | -47.60636 | 34941 ft | 459 kts | 133° |
| 2026-05-07 19:29 | 2.89364 | -47.55854 | 34943 ft | 459 kts | 133° |
| 2026-05-07 19:30 | 2.85145 | -47.51107 | 34942 ft | 459 kts | 133° |
| 2026-05-07 19:30 | 2.80902 | -47.46335 | 34951 ft | 459 kts | 133° |
| 2026-05-07 19:31 | 2.76652 | -47.41548 | 34945 ft | 459 kts | 132° |
| 2026-05-07 19:31 | 2.72430 | -47.36797 | 34944 ft | 459 kts | 133° |
| 2026-05-07 19:32 | 2.68198 | -47.32046 | 34940 ft | 459 kts | 133° |
| 2026-05-07 19:32 | 2.63940 | -47.27264 | 34941 ft | 459 kts | 133° |
| 2026-05-07 19:33 | 2.59683 | -47.22482 | 34941 ft | 459 kts | 133° |
| 2026-05-07 19:33 | 2.55455 | -47.17728 | 34944 ft | 459 kts | 133° |
| 2026-05-07 19:34 | 2.51197 | -47.12946 | 34940 ft | 459 kts | 133° |
| 2026-05-07 19:34 | 2.46968 | -47.08196 | 34940 ft | 459 kts | 133° |
| 2026-05-07 19:35 | 2.42708 | -47.03409 | 34943 ft | 459 kts | 133° |
| 2026-05-07 19:35 | 2.38452 | -46.98627 | 34943 ft | 459 kts | 133° |
| 2026-05-07 19:36 | 2.34222 | -46.93873 | 34943 ft | 460 kts | 133° |
| 2026-05-07 19:36 | 2.29964 | -46.89089 | 34942 ft | 460 kts | 133° |
| 2026-05-07 19:37 | 2.25703 | -46.84302 | 34940 ft | 460 kts | 133° |
| 2026-05-07 19:37 | 2.21469 | -46.79545 | 34939 ft | 460 kts | 133° |
| 2026-05-07 19:38 | 2.17204 | -46.74750 | 34941 ft | 460 kts | 133° |
| 2026-05-07 19:38 | 2.12936 | -46.69960 | 34940 ft | 461 kts | 133° |
| 2026-05-07 19:39 | 2.08685 | -46.65191 | 34938 ft | 461 kts | 133° |
| 2026-05-07 19:39 | 2.04415 | -46.60410 | 34940 ft | 461 kts | 133° |
| 2026-05-07 19:40 | 2.00166 | -46.55639 | 34943 ft | 461 kts | 133° |
| 2026-05-07 19:40 | 1.95904 | -46.50829 | 34941 ft | 461 kts | 133° |
| 2026-05-07 19:41 | 1.91637 | -46.46017 | 34935 ft | 461 kts | 132° |
| 2026-05-07 19:41 | 1.87394 | -46.41244 | 34936 ft | 462 kts | 133° |
| 2026-05-07 19:42 | 1.83117 | -46.36437 | 34935 ft | 462 kts | 132° |
| 2026-05-07 19:42 | 1.78839 | -46.31616 | 34934 ft | 462 kts | 132° |
| 2026-05-07 19:43 | 1.74585 | -46.26828 | 34939 ft | 463 kts | 132° |
| 2026-05-07 19:43 | 1.70306 | -46.22012 | 34940 ft | 463 kts | 132° |
| 2026-05-07 19:44 | 1.66030 | -46.17195 | 34940 ft | 463 kts | 132° |
| 2026-05-07 19:44 | 1.61782 | -46.12413 | 34944 ft | 462 kts | 133° |
| 2026-05-07 19:45 | 1.57503 | -46.07607 | 34945 ft | 461 kts | 132° |
| 2026-05-07 19:45 | 1.53237 | -46.02812 | 34944 ft | 461 kts | 133° |
| 2026-05-07 19:46 | 1.48997 | -45.98035 | 34940 ft | 461 kts | 132° |
| 2026-05-07 19:46 | 1.44735 | -45.93244 | 34943 ft | 460 kts | 132° |
| 2026-05-07 19:47 | 1.40472 | -45.88454 | 34943 ft | 460 kts | 132° |
| 2026-05-07 19:47 | 1.36245 | -45.83697 | 34938 ft | 460 kts | 132° |
| 2026-05-07 19:48 | 1.31982 | -45.78893 | 34925 ft | 461 kts | 132° |
| 2026-05-07 19:48 | 1.27742 | -45.74128 | 34923 ft | 461 kts | 133° |
| 2026-05-07 19:49 | 1.23464 | -45.69323 | 34927 ft | 462 kts | 132° |
| 2026-05-07 19:49 | 1.19215 | -45.64548 | 34931 ft | 462 kts | 133° |
| 2026-05-07 19:50 | 1.14938 | -45.59747 | 34933 ft | 462 kts | 133° |
| 2026-05-07 19:50 | 1.10657 | -45.54946 | 34936 ft | 462 kts | 133° |
| 2026-05-07 19:51 | 1.06411 | -45.50169 | 34934 ft | 462 kts | 132° |
| 2026-05-07 19:51 | 1.02136 | -45.45363 | 34932 ft | 462 kts | 132° |
| 2026-05-07 19:52 | 0.97867 | -45.40544 | 34933 ft | 462 kts | 132° |
| 2026-05-07 19:52 | 0.93618 | -45.35766 | 34936 ft | 462 kts | 132° |
| 2026-05-07 19:53 | 0.89335 | -45.30962 | 34937 ft | 462 kts | 132° |
| 2026-05-07 19:53 | 0.85087 | -45.26190 | 34938 ft | 461 kts | 132° |
| 2026-05-07 19:54 | 0.80820 | -45.21394 | 34936 ft | 461 kts | 133° |
| 2026-05-07 19:54 | 0.76547 | -45.16594 | 34939 ft | 461 kts | 132° |
| 2026-05-07 19:55 | 0.72287 | -45.11800 | 34943 ft | 460 kts | 132° |
| 2026-05-07 19:55 | 0.68053 | -45.07040 | 34940 ft | 460 kts | 132° |
| 2026-05-07 19:56 | 0.63786 | -45.02254 | 34939 ft | 460 kts | 133° |
| 2026-05-07 19:56 | 0.59554 | -44.97504 | 34939 ft | 459 kts | 132° |
| 2026-05-07 19:57 | 0.55307 | -44.92726 | 34937 ft | 459 kts | 133° |
| 2026-05-07 19:57 | 0.51083 | -44.87967 | 34914 ft | 460 kts | 133° |
| 2026-05-07 19:58 | 0.46811 | -44.83168 | 34903 ft | 462 kts | 132° |
| 2026-05-07 19:58 | 0.42560 | -44.78399 | 34921 ft | 462 kts | 133° |
| 2026-05-07 19:59 | 0.38292 | -44.73600 | 34938 ft | 460 kts | 132° |
| 2026-05-07 19:59 | 0.34063 | -44.68841 | 34941 ft | 460 kts | 132° |
| 2026-05-07 20:00 | 0.29809 | -44.64059 | 34937 ft | 459 kts | 132° |
| 2026-05-07 20:00 | 0.25547 | -44.59280 | 34934 ft | 459 kts | 132° |
| 2026-05-07 20:01 | 0.21322 | -44.54539 | 34938 ft | 458 kts | 133° |
| 2026-05-07 20:01 | 0.17084 | -44.49769 | 34935 ft | 458 kts | 133° |
| 2026-05-07 20:02 | 0.12877 | -44.45035 | 34930 ft | 458 kts | 132° |
| 2026-05-07 20:02 | 0.08628 | -44.40277 | 34922 ft | 458 kts | 132° |
| 2026-05-07 20:03 | 0.04371 | -44.35500 | 34917 ft | 460 kts | 132° |
| 2026-05-07 20:03 | 0.00138 | -44.30748 | 34911 ft | 460 kts | 132° |
| 2026-05-07 20:04 | -0.04121 | -44.25953 | 34912 ft | 460 kts | 132° |
| 2026-05-07 20:04 | -0.08357 | -44.21189 | 34914 ft | 461 kts | 132° |
| 2026-05-07 20:05 | -0.12624 | -44.16394 | 34911 ft | 461 kts | 132° |
| 2026-05-07 20:05 | -0.16888 | -44.11602 | 34911 ft | 461 kts | 132° |
| 2026-05-07 20:06 | -0.21140 | -44.06830 | 34915 ft | 462 kts | 132° |
| 2026-05-07 20:06 | -0.25414 | -44.02023 | 34915 ft | 462 kts | 132° |
| 2026-05-07 20:07 | -0.29691 | -43.97210 | 34905 ft | 463 kts | 132° |
| 2026-05-07 20:07 | -0.33949 | -43.92426 | 34906 ft | 463 kts | 132° |
| 2026-05-07 20:08 | -0.38255 | -43.87596 | 34904 ft | 464 kts | 132° |
| 2026-05-07 20:08 | -0.42519 | -43.82796 | 34907 ft | 464 kts | 133° |
| 2026-05-07 20:09 | -0.46815 | -43.77967 | 34906 ft | 464 kts | 132° |
| 2026-05-07 20:10 | -0.53266 | -43.70728 | 34904 ft | 465 kts | 133° |
| 2026-05-07 20:10 | -0.57548 | -43.65925 | 34911 ft | 465 kts | 132° |
| 2026-05-07 20:11 | -0.61846 | -43.61081 | 34915 ft | 465 kts | 132° |
| 2026-05-07 20:11 | -0.66114 | -43.56278 | 34918 ft | 465 kts | 132° |
| 2026-05-07 20:12 | -0.70424 | -43.51438 | 34920 ft | 465 kts | 133° |
| 2026-05-07 20:12 | -0.74727 | -43.46604 | 34918 ft | 465 kts | 133° |
| 2026-05-07 20:13 | -0.79009 | -43.41793 | 34915 ft | 465 kts | 133° |
| 2026-05-07 20:13 | -0.83313 | -43.36961 | 34914 ft | 465 kts | 132° |
| 2026-05-07 20:14 | -0.87614 | -43.32130 | 34918 ft | 464 kts | 133° |
| 2026-05-07 20:14 | -0.91878 | -43.27333 | 34919 ft | 464 kts | 133° |
| 2026-05-07 20:15 | -0.96173 | -43.22507 | 34921 ft | 464 kts | 133° |
| 2026-05-07 20:15 | -1.00466 | -43.17680 | 34922 ft | 464 kts | 132° |
| 2026-05-07 20:16 | -1.04729 | -43.12886 | 34926 ft | 464 kts | 133° |
| 2026-05-07 20:16 | -1.08301 | -43.08875 | 34926 ft | 464 kts | 133° |
| 2026-05-07 20:17 | -1.12593 | -43.04055 | 34920 ft | 464 kts | 132° |
| 2026-05-07 20:17 | -1.17582 | -42.98448 | 34920 ft | 464 kts | 133° |
| 2026-05-07 20:18 | -1.21151 | -42.94425 | 34921 ft | 464 kts | 132° |
| 2026-05-07 20:18 | -1.25441 | -42.89593 | 34922 ft | 465 kts | 132° |
| 2026-05-07 20:19 | -1.29745 | -42.84754 | 34924 ft | 465 kts | 133° |
| 2026-05-07 20:19 | -1.34015 | -42.79940 | 34924 ft | 465 kts | 132° |
| 2026-05-07 20:20 | -1.37808 | -42.74690 | 34922 ft | 467 kts | 121° |
| 2026-05-07 20:20 | -1.40868 | -42.68958 | 34920 ft | 467 kts | 118° |
| 2026-05-07 20:21 | -1.43875 | -42.63234 | 34923 ft | 467 kts | 120° |
| 2026-05-07 20:21 | -1.47119 | -42.57604 | 34921 ft | 467 kts | 121° |
| 2026-05-07 20:22 | -1.50464 | -42.52030 | 34916 ft | 467 kts | 121° |
| 2026-05-07 20:22 | -1.53761 | -42.46483 | 34921 ft | 466 kts | 121° |
| 2026-05-07 20:23 | -1.57049 | -42.40871 | 34914 ft | 467 kts | 121° |
| 2026-05-07 20:23 | -1.60308 | -42.35262 | 34912 ft | 467 kts | 121° |
| 2026-05-07 20:24 | -1.63582 | -42.29643 | 34915 ft | 467 kts | 121° |
| 2026-05-07 20:24 | -1.66845 | -42.24066 | 34915 ft | 467 kts | 121° |
| 2026-05-07 20:25 | -1.70129 | -42.18448 | 34913 ft | 467 kts | 121° |
| 2026-05-07 20:25 | -1.73390 | -42.12871 | 34909 ft | 468 kts | 121° |
| 2026-05-07 20:26 | -1.76675 | -42.07257 | 34916 ft | 468 kts | 121° |
| 2026-05-07 20:26 | -1.79981 | -42.01650 | 34912 ft | 468 kts | 121° |
| 2026-05-07 20:27 | -1.83322 | -41.96043 | 34911 ft | 468 kts | 121° |
| 2026-05-07 20:27 | -1.86663 | -41.90445 | 34913 ft | 468 kts | 121° |
| 2026-05-07 20:28 | -1.89973 | -41.84875 | 34911 ft | 469 kts | 121° |
| 2026-05-07 20:28 | -1.93306 | -41.79262 | 34918 ft | 469 kts | 121° |
| 2026-05-07 20:29 | -1.96639 | -41.73645 | 34915 ft | 469 kts | 121° |
| 2026-05-07 20:29 | -1.99961 | -41.68055 | 34917 ft | 470 kts | 121° |
| 2026-05-07 20:30 | -2.03299 | -41.62429 | 34926 ft | 469 kts | 121° |
| 2026-05-07 20:30 | -2.06615 | -41.56853 | 34922 ft | 469 kts | 121° |
| 2026-05-07 20:31 | -2.09951 | -41.51241 | 34917 ft | 469 kts | 121° |
| 2026-05-07 20:31 | -2.13277 | -41.45627 | 34915 ft | 469 kts | 121° |
| 2026-05-07 20:32 | -2.16592 | -41.40044 | 34915 ft | 469 kts | 121° |
| 2026-05-07 20:32 | -2.19922 | -41.34436 | 34917 ft | 469 kts | 121° |
| 2026-05-07 20:33 | -2.23255 | -41.28818 | 34908 ft | 469 kts | 121° |
| 2026-05-07 20:33 | -2.26594 | -41.23197 | 34912 ft | 469 kts | 121° |
| 2026-05-07 20:34 | -2.29915 | -41.17610 | 34907 ft | 470 kts | 121° |
| 2026-05-07 20:34 | -2.33249 | -41.11984 | 34917 ft | 469 kts | 121° |
| 2026-05-07 20:35 | -2.36584 | -41.06361 | 34924 ft | 469 kts | 121° |
| 2026-05-07 20:35 | -2.39896 | -41.00779 | 34923 ft | 469 kts | 121° |
| 2026-05-07 20:36 | -2.43237 | -40.95151 | 34927 ft | 469 kts | 121° |
| 2026-05-07 20:36 | -2.46559 | -40.89569 | 34919 ft | 469 kts | 121° |
| 2026-05-07 20:37 | -2.49894 | -40.83948 | 34910 ft | 469 kts | 121° |
| 2026-05-07 20:37 | -2.53225 | -40.78325 | 34916 ft | 469 kts | 120° |
| 2026-05-07 20:38 | -2.56532 | -40.72738 | 34912 ft | 470 kts | 121° |
| 2026-05-07 20:38 | -2.59868 | -40.67108 | 34914 ft | 470 kts | 120° |
| 2026-05-07 20:39 | -2.63213 | -40.61473 | 34911 ft | 470 kts | 120° |
| 2026-05-07 20:39 | -2.66536 | -40.55874 | 34916 ft | 470 kts | 120° |
| 2026-05-07 20:40 | -2.69881 | -40.50238 | 34914 ft | 470 kts | 120° |
| 2026-05-07 20:40 | -2.73200 | -40.44632 | 34915 ft | 470 kts | 120° |
| 2026-05-07 20:41 | -2.76537 | -40.38995 | 34918 ft | 470 kts | 120° |
| 2026-05-07 20:41 | -2.79874 | -40.33354 | 34912 ft | 471 kts | 120° |
| 2026-05-07 20:42 | -2.83215 | -40.27712 | 34918 ft | 471 kts | 120° |
| 2026-05-07 20:42 | -2.86542 | -40.22103 | 34915 ft | 471 kts | 120° |
| 2026-05-07 20:43 | -2.89881 | -40.16460 | 34915 ft | 471 kts | 120° |
| 2026-05-07 20:43 | -2.93206 | -40.10848 | 34826 ft | 471 kts | 120° |
| 2026-05-07 20:43 | -2.94887 | -40.08007 | 33824 ft | 479 kts | 120° |
| 2026-05-07 20:44 | -2.96604 | -40.05110 | 32525 ft | 488 kts | 121° |
| 2026-05-07 20:44 | -2.98349 | -40.02167 | 31359 ft | 493 kts | 121° |
| 2026-05-07 20:44 | -3.00094 | -39.99215 | 30382 ft | 493 kts | 121° |
| 2026-05-07 20:44 | -3.01827 | -39.96273 | 29693 ft | 486 kts | 121° |
| 2026-05-07 20:45 | -3.03514 | -39.93410 | 28994 ft | 480 kts | 121° |
| 2026-05-07 20:45 | -3.05206 | -39.90546 | 28310 ft | 474 kts | 121° |
| 2026-05-07 20:45 | -3.06881 | -39.87715 | 27652 ft | 469 kts | 121° |
| 2026-05-07 20:45 | -3.08540 | -39.84913 | 26992 ft | 465 kts | 121° |
| 2026-05-07 20:46 | -3.10181 | -39.82140 | 26340 ft | 461 kts | 121° |
| 2026-05-07 20:46 | -3.11815 | -39.79384 | 25695 ft | 459 kts | 121° |
| 2026-05-07 20:46 | -3.13441 | -39.76649 | 25059 ft | 456 kts | 120° |
| 2026-05-07 20:46 | -3.15054 | -39.73931 | 24428 ft | 453 kts | 120° |
| 2026-05-07 20:47 | -3.16659 | -39.71218 | 23820 ft | 451 kts | 120° |
| 2026-05-07 20:47 | -3.18231 | -39.68550 | 23170 ft | 449 kts | 120° |
| 2026-05-07 20:47 | -3.19810 | -39.65867 | 22575 ft | 444 kts | 120° |
| 2026-05-07 20:47 | -3.21371 | -39.63216 | 22052 ft | 438 kts | 120° |
| 2026-05-07 20:48 | -3.22915 | -39.60600 | 21522 ft | 433 kts | 120° |
| 2026-05-07 20:48 | -3.24439 | -39.58020 | 21025 ft | 428 kts | 120° |
| 2026-05-07 20:48 | -3.25933 | -39.55492 | 20529 ft | 424 kts | 120° |
| 2026-05-07 20:48 | -3.27430 | -39.52963 | 20026 ft | 420 kts | 119° |
| 2026-05-07 20:49 | -3.28914 | -39.50453 | 19516 ft | 417 kts | 120° |
| 2026-05-07 20:49 | -3.30386 | -39.47962 | 19004 ft | 414 kts | 119° |
| 2026-05-07 20:49 | -3.31849 | -39.45486 | 18489 ft | 412 kts | 120° |
| 2026-05-07 20:49 | -3.33308 | -39.43022 | 17972 ft | 409 kts | 120° |
| 2026-05-07 20:50 | -3.34752 | -39.40586 | 17439 ft | 405 kts | 120° |
| 2026-05-07 20:50 | -3.36181 | -39.38178 | 16863 ft | 402 kts | 120° |
| 2026-05-07 20:50 | -3.37580 | -39.35815 | 16439 ft | 396 kts | 120° |
| 2026-05-07 20:50 | -3.38982 | -39.33440 | 15899 ft | 394 kts | 120° |
| 2026-05-07 20:51 | -3.40373 | -39.31080 | 15380 ft | 391 kts | 120° |
| 2026-05-07 20:51 | -3.41749 | -39.28749 | 14807 ft | 389 kts | 119° |
| 2026-05-07 20:51 | -3.43111 | -39.26439 | 14459 ft | 382 kts | 119° |
| 2026-05-07 20:51 | -3.44451 | -39.24165 | 13826 ft | 374 kts | 119° |
| 2026-05-07 20:52 | -3.45765 | -39.21931 | 13151 ft | 371 kts | 119° |
| 2026-05-07 20:52 | -3.47055 | -39.19743 | 12654 ft | 367 kts | 120° |
| 2026-05-07 20:52 | -3.48351 | -39.17554 | 12138 ft | 363 kts | 120° |
| 2026-05-07 20:52 | -3.49632 | -39.15388 | 11628 ft | 359 kts | 120° |
| 2026-05-07 20:53 | -3.50904 | -39.13235 | 11108 ft | 356 kts | 120° |
| 2026-05-07 20:53 | -3.52162 | -39.11108 | 10587 ft | 353 kts | 120° |
| 2026-05-07 20:53 | -3.53384 | -39.09044 | 10387 ft | 341 kts | 120° |
| 2026-05-07 20:53 | -3.54569 | -39.07042 | 10267 ft | 327 kts | 120° |
| 2026-05-07 20:54 | -3.55703 | -39.05122 | 10147 ft | 314 kts | 120° |
| 2026-05-07 20:54 | -3.56793 | -39.03276 | 10032 ft | 302 kts | 120° |
| 2026-05-07 20:54 | -3.57843 | -39.01495 | 9874 ft | 292 kts | 120° |
| 2026-05-07 20:54 | -3.58858 | -38.99776 | 9540 ft | 289 kts | 120° |
| 2026-05-07 20:55 | -3.59880 | -38.98047 | 9158 ft | 287 kts | 120° |
| 2026-05-07 20:55 | -3.60880 | -38.96349 | 8786 ft | 285 kts | 120° |
| 2026-05-07 20:55 | -3.61884 | -38.94643 | 8400 ft | 284 kts | 120° |
| 2026-05-07 20:55 | -3.62881 | -38.92949 | 8022 ft | 282 kts | 120° |
| 2026-05-07 20:56 | -3.63870 | -38.91270 | 7477 ft | 277 kts | 120° |
| 2026-05-07 20:56 | -3.64840 | -38.89626 | 6914 ft | 271 kts | 120° |
| 2026-05-07 20:56 | -3.65797 | -38.88005 | 6313 ft | 268 kts | 120° |
| 2026-05-07 20:56 | -3.66739 | -38.86408 | 5676 ft | 265 kts | 121° |
| 2026-05-07 20:57 | -3.67669 | -38.84831 | 5198 ft | 255 kts | 122° |
| 2026-05-07 20:57 | -3.68531 | -38.83365 | 5015 ft | 235 kts | 122° |
| 2026-05-07 20:57 | -3.69354 | -38.81966 | 4766 ft | 230 kts | 122° |
| 2026-05-07 20:57 | -3.70154 | -38.80597 | 4331 ft | 234 kts | 119° |
| 2026-05-07 20:58 | -3.70722 | -38.79037 | 3788 ft | 240 kts | 106° |
| 2026-05-07 20:58 | -3.71127 | -38.77451 | 3533 ft | 229 kts | 107° |
| 2026-05-07 20:58 | -3.71545 | -38.75945 | 3396 ft | 219 kts | 108° |
| 2026-05-07 20:58 | -3.71937 | -38.74502 | 3289 ft | 209 kts | 107° |
| 2026-05-07 20:59 | -3.72303 | -38.73140 | 3231 ft | 195 kts | 107° |
| 2026-05-07 20:59 | -3.72648 | -38.71855 | 3129 ft | 189 kts | 107° |
| 2026-05-07 20:59 | -3.72977 | -38.70628 | 3055 ft | 178 kts | 108° |
| 2026-05-07 20:59 | -3.73284 | -38.69479 | 2947 ft | 162 kts | 108° |
| 2026-05-07 21:00 | -3.73565 | -38.68431 | 2761 ft | 149 kts | 107° |
| 2026-05-07 21:00 | -3.73831 | -38.67441 | 2581 ft | 145 kts | 107° |
| 2026-05-07 21:00 | -3.74091 | -38.66474 | 2402 ft | 143 kts | 107° |
| 2026-05-07 21:00 | -3.74347 | -38.65517 | 2219 ft | 141 kts | 106° |
| 2026-05-07 21:01 | -3.74600 | -38.64573 | 2035 ft | 141 kts | 105° |
| 2026-05-07 21:01 | -3.74852 | -38.63637 | 1859 ft | 140 kts | 105° |
| 2026-05-07 21:01 | -3.75110 | -38.62706 | 1691 ft | 138 kts | 107° |
| 2026-05-07 21:01 | -3.75378 | -38.61787 | 1537 ft | 137 kts | 105° |
| 2026-05-07 21:02 | -3.75623 | -38.60863 | 1356 ft | 137 kts | 104° |
| 2026-05-07 21:02 | -3.75859 | -38.59933 | 1136 ft | 137 kts | 103° |
| 2026-05-07 21:02 | -3.76113 | -38.59006 | 919 ft | 136 kts | 105° |
| 2026-05-07 21:02 | -3.76355 | -38.58098 | 821 ft | 136 kts | 104° |
| 2026-05-07 21:03 | -3.76571 | -38.57178 | 615 ft | 136 kts | 102° |
| 2026-05-07 21:03 | -3.76814 | -38.56262 | 476 ft | 135 kts | 105° |
| 2026-05-07 21:03 | -3.77069 | -38.55355 | 313 ft | 134 kts | 105° |
| 2026-05-07 21:03 | -3.77308 | -38.54445 | 122 ft | 134 kts | 104° |
| 2026-05-07 21:04 | -3.77525 | -38.53650 | 87 ft | 96 kts | 107° |
| 2026-05-07 21:04 | -3.77643 | -38.53212 | 75 ft | 46 kts | 104° |
| 2026-05-07 21:04 | -3.77720 | -38.52925 | 78 ft | 40 kts | 104° |
| 2026-05-07 21:04 | -3.77780 | -38.52704 | 75 ft | 21 kts | 105° |
| 2026-05-07 21:05 | -3.77811 | -38.52616 | 68 ft | 7 kts | 144° |
| 2026-05-07 21:05 | -3.77852 | -38.52627 | 74 ft | 5 kts | 224° |
| 2026-05-07 21:05 | -3.77869 | -38.52653 | 72 ft | 4 kts | 244° |
| 2026-05-07 21:05 | -3.77878 | -38.52673 | 70 ft | 3 kts | 244° |
| 2026-05-07 21:06 | -3.77888 | -38.52694 | 70 ft | 3 kts | 244° |
| 2026-05-07 21:06 | -3.77901 | -38.52721 | 71 ft | 8 kts | 245° |
| 2026-05-07 21:06 | -3.77912 | -38.52759 | 67 ft | 8 kts | 266° |
| 2026-05-07 21:06 | -3.77904 | -38.52809 | 73 ft | 6 kts | 283° |
| 2026-05-07 21:07 | -3.77891 | -38.52856 | 72 ft | 4 kts | 285° |
| 2026-05-07 21:07 | -3.77883 | -38.52887 | 69 ft | 7 kts | 284° |
| 2026-05-07 21:07 | -3.77872 | -38.52929 | 77 ft | 12 kts | 284° |
| 2026-05-07 21:07 | -3.77853 | -38.53001 | 69 ft | 10 kts | 285° |
| 2026-05-07 21:08 | -3.77837 | -38.53061 | 70 ft | 8 kts | 285° |
| 2026-05-07 21:08 | -3.77823 | -38.53110 | 73 ft | 7 kts | 285° |
| 2026-05-07 21:08 | -3.77812 | -38.53150 | 78 ft | 6 kts | 285° |
| 2026-05-07 21:08 | -3.77793 | -38.53226 | 80 ft | 16 kts | 284° |
| 2026-05-07 21:09 | -3.77763 | -38.53345 | 82 ft | 14 kts | 286° |
| 2026-05-07 21:09 | -3.77738 | -38.53431 | 84 ft | 12 kts | 286° |
| 2026-05-07 21:09 | -3.77717 | -38.53506 | 81 ft | 10 kts | 284° |
| 2026-05-07 21:09 | -3.77701 | -38.53570 | 82 ft | 9 kts | 284° |
| 2026-05-07 21:10 | -3.77687 | -38.53624 | 82 ft | 7 kts | 285° |
| 2026-05-07 21:10 | -3.77670 | -38.53684 | 83 ft | 13 kts | 285° |
| 2026-05-07 21:10 | -3.77648 | -38.53768 | 85 ft | 11 kts | 285° |
| 2026-05-07 21:10 | -3.77629 | -38.53838 | 86 ft | 10 kts | 285° |
| 2026-05-07 21:11 | -3.77612 | -38.53897 | 85 ft | 8 kts | 285° |
| 2026-05-07 21:11 | -3.77589 | -38.53985 | 87 ft | 16 kts | 285° |
| 2026-05-07 21:11 | -3.77541 | -38.54165 | 88 ft | 11 kts | 285° |
| 2026-05-07 21:12 | -3.77521 | -38.54237 | 89 ft | 10 kts | 285° |
| 2026-05-07 21:12 | -3.77504 | -38.54299 | 90 ft | 8 kts | 285° |
| 2026-05-07 21:12 | -3.77495 | -38.54351 | 92 ft | 7 kts | 265° |
| 2026-05-07 21:12 | -3.77522 | -38.54380 | 89 ft | 6 kts | 200° |
| 2026-05-07 21:13 | -3.77570 | -38.54374 | 88 ft | 6 kts | 167° |
| 2026-05-07 21:13 | -3.77605 | -38.54356 | 90 ft | 5 kts | 130° |
| 2026-05-07 21:13 | -3.77617 | -38.54325 | 88 ft | 5 kts | 103° |
| 2026-05-07 21:13 | -3.77624 | -38.54292 | 89 ft | 5 kts | 101° |
| 2026-05-07 21:14 | -3.77640 | -38.54260 | 91 ft | 5 kts | 135° |
| 2026-05-07 21:14 | -3.77669 | -38.54250 | 87 ft | 4 kts | 164° |
| 2026-05-07 21:14 | -3.77693 | -38.54243 | 88 ft | 3 kts | 162° |
| 2026-05-07 21:14 | -3.77712 | -38.54237 | 87 ft | 3 kts | 162° |
| 2026-05-07 21:15 | -3.77727 | -38.54232 | 90 ft | 2 kts | 159° |
| 2026-05-07 21:15 | -3.77735 | -38.54225 | 89 ft | 1 kts | 141° |
| 2026-05-07 21:15 | -3.77745 | -38.54215 | 86 ft | 3 kts | 133° |
| 2026-05-07 21:15 | -3.77755 | -38.54203 | 88 ft | 2 kts | 129° |
| 2026-05-07 21:16 | -3.77760 | -38.54197 | 88 ft | 0 kts | 129° |